This is the latest recevied weather packets stored in our database for station/object OK2CME-6. If no packets are shown the sender has not sent any weather packets the latest 10 day(s).
| Time | Temp. | Humidity | Pressure | Rain* | Wind** | Luminosity | Snow |
|---|---|---|---|---|---|---|---|
| 1777686914 | 10° C | 61% | 1028.2 hPa | 0 mm | - | 0 W/m² | - |
| 1777685714 | 11.11° C | 58% | 1028.1 hPa | 0 mm | - | 0 W/m² | - |
| 1777684514 | 10.56° C | 60% | 1028.4 hPa | 0 mm | - | 0 W/m² | - |
| 1777683314 | 10.56° C | 59% | 1028.4 hPa | 0 mm | - | 0 W/m² | - |
| 1777682114 | 10.56° C | 59% | 1028.4 hPa | 0 mm | - | 0 W/m² | - |
| 1777680914 | 9.44° C | 64% | 1028.6 hPa | 0 mm | - | 0 W/m² | - |
| 1777679714 | 10.56° C | 59% | 1028.6 hPa | 0 mm | - | 0 W/m² | - |
| 1777678514 | 10° C | 61% | 1028.7 hPa | 0 mm | - | 0 W/m² | - |
| 1777677314 | 11.11° C | 58% | 1028.8 hPa | 0 mm | - | 0 W/m² | - |
| 1777676114 | 11.11° C | 58% | 1029 hPa | 0 mm | - | 0 W/m² | - |
| 1777674914 | 11.67° C | 56% | 1029 hPa | 0 mm | - | 0 W/m² | - |
| 1777673714 | 12.22° C | 55% | 1029 hPa | 0 mm | - | 0 W/m² | - |
| 1777672514 | 11.67° C | 56% | 1028.8 hPa | 0 mm | - | 0 W/m² | - |
| 1777671314 | 11.67° C | 55% | 1028.8 hPa | 0 mm | - | 0 W/m² | - |
| 1777670114 | 11.67° C | 55% | 1028.8 hPa | 0 mm | - | 0 W/m² | - |
| 1777668914 | 12.78° C | 53% | 1028.7 hPa | 0 mm | - | 0 W/m² | - |
| 1777667714 | 12.78° C | 51% | 1028.8 hPa | 0 mm | - | 0 W/m² | - |
| 1777666514 | 13.33° C | 50% | 1028.8 hPa | 0 mm | - | 0 W/m² | - |
| 1777665314 | 13.33° C | 49% | 1028.9 hPa | 0 mm | - | 0 W/m² | - |
| 1777664114 | 13.89° C | 49% | 1028.8 hPa | 0 mm | - | 0 W/m² | - |
| 1777662914 | 13.89° C | 48% | 1028.7 hPa | 0 mm | - | 0 W/m² | - |
| 1777661714 | 14.44° C | 48% | 1028.6 hPa | 0 mm | - | 0 W/m² | - |
| 1777660514 | 15° C | 47% | 1028.2 hPa | 0 mm | - | 2 W/m² | - |
| 1777659314 | 15.56° C | 45% | 1028.2 hPa | 0 mm | - | 8 W/m² | - |
| 1777658114 | 16.67° C | 43% | 1028 hPa | 0 mm | - | 18 W/m² | - |
* Rain latest hour (hover to see other rain measurements)
** Current wind speed in m/s (hover to see current wind gust speed)